Accueil
METAR-TAF:

METAR-TAF

Aéroports :

Asahikawa, Japon

latitude: 43-40N, longitude: 142-27E, altitude: 208 m

Observation

Le bulletin a été fait il y a 26 minutes, à 06:00 UTC
Vent 9 kt de nord
Température 26°C
Humidité 61%
Pression 1007 hPa
Visibilité 10 km ou plus
Quelques nuages à une hauteur de 3000 ft
Nuages fragmentés

METAR: RJEC 250600Z 35009KT 9999 FEW030 BKN/// 26/18 Q1007

Heure: 15:26 (06:26 UTC)

Prévision

Le bulletin a été fait il y a 1 heure et 21 minutes, à 05:05 UTC
Prévision valable du 25 à 06 UTC au 26 à 12 UTC
Vent 5 kt de nord-ouest
Visibilité 10 km ou plus
Quelques nuages à une hauteur de 2000 ft
Nuages fragmentés à une hauteur de 5000 ft

TAF: RJEC 250505Z 2506/2612 31005KT 9999 FEW020 BKN050

Observations et prévisions météorologiques de plus de 4000 aéroports (messages METAR et TAF).

Les stations disponibles sont représentées par des disques jaunes et rouges sur la carte.

Passer la souris dessus pour voir le nom de la station.

Cliquer dessus pour voir les observations et prévisions météorologiques.

Pour changer de carte: cliquez sur les boutons verts avec une croix noire pour zoomer, sur le bouton vert avec un tiret pour effectuer un zoom arrière, ou sur les flèches vertes pour les cartes adjacentes.


METAR-TAF: